sensor_id;sensor_type;location;lat;lon;timestamp;temperature;humidity
82788;DHT22;72529;51.786;4.662;2023-09-18T00:02:20;20.87;83.48
82788;DHT22;72529;51.786;4.662;2023-09-18T00:04:45;20.93;83.34
82788;DHT22;72529;51.786;4.662;2023-09-18T00:07:10;20.88;83.24
82788;DHT22;72529;51.786;4.662;2023-09-18T00:09:36;20.90;83.38
82788;DHT22;72529;51.786;4.662;2023-09-18T00:12:01;20.90;83.38
82788;DHT22;72529;51.786;4.662;2023-09-18T00:14:27;20.87;83.44
82788;DHT22;72529;51.786;4.662;2023-09-18T00:16:52;20.80;83.44
82788;DHT22;72529;51.786;4.662;2023-09-18T00:19:18;20.81;83.62
82788;DHT22;72529;51.786;4.662;2023-09-18T00:21:43;20.84;83.52
82788;DHT22;72529;51.786;4.662;2023-09-18T00:24:09;20.86;83.52
82788;DHT22;72529;51.786;4.662;2023-09-18T00:26:37;20.87;83.13
82788;DHT22;72529;51.786;4.662;2023-09-18T00:29:02;20.87;83.15
82788;DHT22;72529;51.786;4.662;2023-09-18T00:31:27;20.91;82.94
82788;DHT22;72529;51.786;4.662;2023-09-18T00:33:53;20.90;82.97
82788;DHT22;72529;51.786;4.662;2023-09-18T00:36:18;20.91;83.02
82788;DHT22;72529;51.786;4.662;2023-09-18T00:38:44;20.90;83.04
82788;DHT22;72529;51.786;4.662;2023-09-18T00:41:09;20.87;83.00
82788;DHT22;72529;51.786;4.662;2023-09-18T00:43:34;20.84;83.11
82788;DHT22;72529;51.786;4.662;2023-09-18T00:46:01;20.83;83.43
82788;DHT22;72529;51.786;4.662;2023-09-18T00:48:26;20.83;83.39
82788;DHT22;72529;51.786;4.662;2023-09-18T00:50:54;20.80;83.58
82788;DHT22;72529;51.786;4.662;2023-09-18T00:53:22;20.77;83.87
82788;DHT22;72529;51.786;4.662;2023-09-18T00:55:52;20.81;83.68
82788;DHT22;72529;51.786;4.662;2023-09-18T00:58:18;20.83;83.77
82788;DHT22;72529;51.786;4.662;2023-09-18T01:00:44;20.80;83.78
82788;DHT22;72529;51.786;4.662;2023-09-18T01:03:10;20.77;83.77
82788;DHT22;72529;51.786;4.662;2023-09-18T01:05:36;20.81;83.50
82788;DHT22;72529;51.786;4.662;2023-09-18T01:08:02;20.86;83.25
82788;DHT22;72529;51.786;4.662;2023-09-18T01:10:47;20.81;83.56
82788;DHT22;72529;51.786;4.662;2023-09-18T01:13:21;20.81;83.72
82788;DHT22;72529;51.786;4.662;2023-09-18T01:15:54;20.80;83.63
82788;DHT22;72529;51.786;4.662;2023-09-18T01:18:23;20.80;83.72
82788;DHT22;72529;51.786;4.662;2023-09-18T01:20:48;20.77;83.60
82788;DHT22;72529;51.786;4.662;2023-09-18T01:23:14;20.80;83.53
82788;DHT22;72529;51.786;4.662;2023-09-18T01:25:39;20.76;83.78
82788;DHT22;72529;51.786;4.662;2023-09-18T01:28:05;20.77;83.71
82788;DHT22;72529;51.786;4.662;2023-09-18T01:30:30;20.80;83.67
82788;DHT22;72529;51.786;4.662;2023-09-18T01:32:58;20.80;83.59
82788;DHT22;72529;51.786;4.662;2023-09-18T01:35:26;20.83;83.39
82788;DHT22;72529;51.786;4.662;2023-09-18T01:37:59;20.87;83.28
82788;DHT22;72529;51.786;4.662;2023-09-18T01:40:26;20.87;83.34
82788;DHT22;72529;51.786;4.662;2023-09-18T01:42:53;20.84;83.51
82788;DHT22;72529;51.786;4.662;2023-09-18T01:45:18;20.86;83.64
82788;DHT22;72529;51.786;4.662;2023-09-18T01:47:45;20.84;83.50
82788;DHT22;72529;51.786;4.662;2023-09-18T01:50:11;20.87;83.59
82788;DHT22;72529;51.786;4.662;2023-09-18T01:52:36;20.90;83.62
82788;DHT22;72529;51.786;4.662;2023-09-18T01:55:02;20.86;83.72
82788;DHT22;72529;51.786;4.662;2023-09-18T01:57:29;20.91;83.53
82788;DHT22;72529;51.786;4.662;2023-09-18T01:59:55;20.90;83.66
82788;DHT22;72529;51.786;4.662;2023-09-18T02:02:20;20.93;83.57
82788;DHT22;72529;51.786;4.662;2023-09-18T02:04:46;21.03;83.13
82788;DHT22;72529;51.786;4.662;2023-09-18T02:07:11;21.01;83.36
82788;DHT22;72529;51.786;4.662;2023-09-18T02:09:36;21.03;83.41
82788;DHT22;72529;51.786;4.662;2023-09-18T02:12:02;21.01;83.23
82788;DHT22;72529;51.786;4.662;2023-09-18T02:14:28;21.04;83.28
82788;DHT22;72529;51.786;4.662;2023-09-18T02:16:56;21.06;83.22
82788;DHT22;72529;51.786;4.662;2023-09-18T02:19:22;21.04;83.27
82788;DHT22;72529;51.786;4.662;2023-09-18T02:21:47;21.07;83.10
82788;DHT22;72529;51.786;4.662;2023-09-18T02:24:13;21.10;82.96
82788;DHT22;72529;51.786;4.662;2023-09-18T02:26:38;21.11;82.95
82788;DHT22;72529;51.786;4.662;2023-09-18T02:29:07;21.10;82.89
82788;DHT22;72529;51.786;4.662;2023-09-18T02:31:34;21.12;82.81
82788;DHT22;72529;51.786;4.662;2023-09-18T02:34:00;21.14;82.65
82788;DHT22;72529;51.786;4.662;2023-09-18T02:36:25;21.07;82.73
82788;DHT22;72529;51.786;4.662;2023-09-18T02:38:50;21.03;83.27
82788;DHT22;72529;51.786;4.662;2023-09-18T02:41:16;21.03;83.24
82788;DHT22;72529;51.786;4.662;2023-09-18T02:43:41;21.03;83.37
82788;DHT22;72529;51.786;4.662;2023-09-18T02:46:07;21.03;83.10
82788;DHT22;72529;51.786;4.662;2023-09-18T02:48:33;20.97;83.47
82788;DHT22;72529;51.786;4.662;2023-09-18T02:51:00;21.00;83.35
82788;DHT22;72529;51.786;4.662;2023-09-18T02:53:26;21.03;83.08
82788;DHT22;72529;51.786;4.662;2023-09-18T02:55:53;21.00;83.54
82788;DHT22;72529;51.786;4.662;2023-09-18T02:58:19;20.98;83.55
82788;DHT22;72529;51.786;4.662;2023-09-18T03:00:47;20.97;83.74
82788;DHT22;72529;51.786;4.662;2023-09-18T03:03:14;21.00;83.83
82788;DHT22;72529;51.786;4.662;2023-09-18T03:05:41;20.96;84.39
82788;DHT22;72529;51.786;4.662;2023-09-18T03:08:08;20.94;84.57
82788;DHT22;72529;51.786;4.662;2023-09-18T03:10:34;20.96;84.55
82788;DHT22;72529;51.786;4.662;2023-09-18T03:13:01;21.00;84.70
82788;DHT22;72529;51.786;4.662;2023-09-18T03:15:26;21.03;84.96
82788;DHT22;72529;51.786;4.662;2023-09-18T03:17:52;20.98;85.47
82788;DHT22;72529;51.786;4.662;2023-09-18T03:20:17;21.04;85.82
82788;DHT22;72529;51.786;4.662;2023-09-18T03:22:43;21.03;86.00
82788;DHT22;72529;51.786;4.662;2023-09-18T03:25:08;21.06;86.16
82788;DHT22;72529;51.786;4.662;2023-09-18T03:27:35;21.10;86.24
82788;DHT22;72529;51.786;4.662;2023-09-18T03:30:00;21.12;86.07
82788;DHT22;72529;51.786;4.662;2023-09-18T03:32:26;21.23;85.92
82788;DHT22;72529;51.786;4.662;2023-09-18T03:34:51;21.18;86.09
82788;DHT22;72529;51.786;4.662;2023-09-18T03:37:17;21.15;86.32
82788;DHT22;72529;51.786;4.662;2023-09-18T03:39:43;21.23;86.14
82788;DHT22;72529;51.786;4.662;2023-09-18T03:42:09;21.17;86.52
82788;DHT22;72529;51.786;4.662;2023-09-18T03:44:34;21.07;87.08
82788;DHT22;72529;51.786;4.662;2023-09-18T03:47:00;20.98;87.25
82788;DHT22;72529;51.786;4.662;2023-09-18T03:49:27;20.94;87.47
82788;DHT22;72529;51.786;4.662;2023-09-18T03:51:52;20.93;87.17
82788;DHT22;72529;51.786;4.662;2023-09-18T03:54:18;21.04;86.32
82788;DHT22;72529;51.786;4.662;2023-09-18T03:56:43;20.98;86.70
82788;DHT22;72529;51.786;4.662;2023-09-18T03:59:08;21.01;86.51
82788;DHT22;72529;51.786;4.662;2023-09-18T04:01:34;21.06;86.36
82788;DHT22;72529;51.786;4.662;2023-09-18T04:03:59;21.12;86.06
82788;DHT22;72529;51.786;4.662;2023-09-18T04:06:36;21.24;85.68
82788;DHT22;72529;51.786;4.662;2023-09-18T04:09:02;21.24;85.59
82788;DHT22;72529;51.786;4.662;2023-09-18T04:11:28;21.31;85.05
82788;DHT22;72529;51.786;4.662;2023-09-18T04:13:58;21.27;85.29
82788;DHT22;72529;51.786;4.662;2023-09-18T04:16:25;21.26;85.29
82788;DHT22;72529;51.786;4.662;2023-09-18T04:18:51;21.26;85.09
82788;DHT22;72529;51.786;4.662;2023-09-18T04:21:16;21.28;84.93
82788;DHT22;72529;51.786;4.662;2023-09-18T04:23:42;21.24;85.12
82788;DHT22;72529;51.786;4.662;2023-09-18T04:26:07;21.28;84.94
82788;DHT22;72529;51.786;4.662;2023-09-18T04:28:33;21.23;85.22
82788;DHT22;72529;51.786;4.662;2023-09-18T04:30:58;21.17;85.45
82788;DHT22;72529;51.786;4.662;2023-09-18T04:33:23;21.08;85.62
82788;DHT22;72529;51.786;4.662;2023-09-18T04:35:50;21.00;86.11
82788;DHT22;72529;51.786;4.662;2023-09-18T04:38:16;21.06;85.85
82788;DHT22;72529;51.786;4.662;2023-09-18T04:40:43;21.03;86.10
82788;DHT22;72529;51.786;4.662;2023-09-18T04:43:11;20.98;86.00
82788;DHT22;72529;51.786;4.662;2023-09-18T04:45:36;21.04;85.94
82788;DHT22;72529;51.786;4.662;2023-09-18T04:48:02;21.08;85.96
82788;DHT22;72529;51.786;4.662;2023-09-18T04:50:28;21.07;85.77
82788;DHT22;72529;51.786;4.662;2023-09-18T04:52:54;21.03;86.11
82788;DHT22;72529;51.786;4.662;2023-09-18T04:55:21;21.07;85.97
82788;DHT22;72529;51.786;4.662;2023-09-18T04:57:47;21.10;85.61
82788;DHT22;72529;51.786;4.662;2023-09-18T05:00:12;21.08;85.64
82788;DHT22;72529;51.786;4.662;2023-09-18T05:02:40;21.10;85.68
82788;DHT22;72529;51.786;4.662;2023-09-18T05:05:06;21.03;85.05
82788;DHT22;72529;51.786;4.662;2023-09-18T05:07:34;21.04;85.02
82788;DHT22;72529;51.786;4.662;2023-09-18T05:10:00;21.04;84.69
82788;DHT22;72529;51.786;4.662;2023-09-18T05:12:25;20.97;84.28
82788;DHT22;72529;51.786;4.662;2023-09-18T05:14:51;20.90;84.52
82788;DHT22;72529;51.786;4.662;2023-09-18T05:17:17;20.83;84.04
82788;DHT22;72529;51.786;4.662;2023-09-18T05:19:43;20.84;83.86
82788;DHT22;72529;51.786;4.662;2023-09-18T05:22:09;20.76;84.03
82788;DHT22;72529;51.786;4.662;2023-09-18T05:24:38;20.81;83.79
82788;DHT22;72529;51.786;4.662;2023-09-18T05:27:04;20.70;84.27
82788;DHT22;72529;51.786;4.662;2023-09-18T05:29:33;20.73;84.11
82788;DHT22;72529;51.786;4.662;2023-09-18T05:31:58;20.73;83.99
82788;DHT22;72529;51.786;4.662;2023-09-18T05:34:24;20.73;84.18
82788;DHT22;72529;51.786;4.662;2023-09-18T05:36:49;20.74;84.24
82788;DHT22;72529;51.786;4.662;2023-09-18T05:39:15;20.72;84.33
82788;DHT22;72529;51.786;4.662;2023-09-18T05:41:40;20.70;84.28
82788;DHT22;72529;51.786;4.662;2023-09-18T05:44:07;20.63;84.64
82788;DHT22;72529;51.786;4.662;2023-09-18T05:46:36;20.67;84.51
82788;DHT22;72529;51.786;4.662;2023-09-18T05:49:02;20.69;84.46
82788;DHT22;72529;51.786;4.662;2023-09-18T05:51:27;20.67;84.77
82788;DHT22;72529;51.786;4.662;2023-09-18T05:53:53;20.67;84.64
82788;DHT22;72529;51.786;4.662;2023-09-18T05:56:18;20.66;84.81
82788;DHT22;72529;51.786;4.662;2023-09-18T05:58:44;20.63;85.07
82788;DHT22;72529;51.786;4.662;2023-09-18T06:01:09;20.57;85.15
82788;DHT22;72529;51.786;4.662;2023-09-18T06:03:35;20.60;85.06
82788;DHT22;72529;51.786;4.662;2023-09-18T06:06:07;20.62;85.20
82788;DHT22;72529;51.786;4.662;2023-09-18T06:08:33;20.57;85.11
82788;DHT22;72529;51.786;4.662;2023-09-18T06:10:59;20.53;85.17
82788;DHT22;72529;51.786;4.662;2023-09-18T06:13:25;20.53;85.07
82788;DHT22;72529;51.786;4.662;2023-09-18T06:15:52;20.50;85.18
82788;DHT22;72529;51.786;4.662;2023-09-18T06:18:19;20.42;85.30
82788;DHT22;72529;51.786;4.662;2023-09-18T06:20:46;20.45;84.75
82788;DHT22;72529;51.786;4.662;2023-09-18T06:23:12;20.42;84.62
82788;DHT22;72529;51.786;4.662;2023-09-18T06:25:38;20.37;84.62
82788;DHT22;72529;51.786;4.662;2023-09-18T06:28:04;20.37;84.74
82788;DHT22;72529;51.786;4.662;2023-09-18T06:30:30;20.42;84.83
82788;DHT22;72529;51.786;4.662;2023-09-18T06:32:56;20.45;84.67
82788;DHT22;72529;51.786;4.662;2023-09-18T06:35:22;20.46;84.56
82788;DHT22;72529;51.786;4.662;2023-09-18T06:37:47;20.49;84.51
82788;DHT22;72529;51.786;4.662;2023-09-18T06:40:13;20.49;84.13
82788;DHT22;72529;51.786;4.662;2023-09-18T06:42:39;20.50;84.00
82788;DHT22;72529;51.786;4.662;2023-09-18T06:45:05;20.43;83.80
82788;DHT22;72529;51.786;4.662;2023-09-18T06:47:32;20.40;84.08
82788;DHT22;72529;51.786;4.662;2023-09-18T06:49:58;20.36;84.12
82788;DHT22;72529;51.786;4.662;2023-09-18T06:52:25;20.37;83.69
82788;DHT22;72529;51.786;4.662;2023-09-18T06:54:52;20.33;83.81
82788;DHT22;72529;51.786;4.662;2023-09-18T06:57:18;20.42;83.65
82788;DHT22;72529;51.786;4.662;2023-09-18T06:59:43;20.43;83.59
82788;DHT22;72529;51.786;4.662;2023-09-18T07:02:10;20.46;83.38
82788;DHT22;72529;51.786;4.662;2023-09-18T07:04:35;20.40;83.57
82788;DHT22;72529;51.786;4.662;2023-09-18T07:07:02;20.43;83.31
82788;DHT22;72529;51.786;4.662;2023-09-18T07:09:27;20.46;83.42
82788;DHT22;72529;51.786;4.662;2023-09-18T07:11:53;20.52;83.68
82788;DHT22;72529;51.786;4.662;2023-09-18T07:14:18;20.55;83.22
82788;DHT22;72529;51.786;4.662;2023-09-18T07:16:43;20.50;83.07
82788;DHT22;72529;51.786;4.662;2023-09-18T07:19:09;20.53;82.97
82788;DHT22;72529;51.786;4.662;2023-09-18T07:21:37;20.56;82.40
82788;DHT22;72529;51.786;4.662;2023-09-18T07:24:04;20.56;82.80
82788;DHT22;72529;51.786;4.662;2023-09-18T07:26:29;20.60;82.41
82788;DHT22;72529;51.786;4.662;2023-09-18T07:28:55;20.55;82.39
82788;DHT22;72529;51.786;4.662;2023-09-18T07:31:20;20.47;82.89
82788;DHT22;72529;51.786;4.662;2023-09-18T07:33:45;20.56;82.79
82788;DHT22;72529;51.786;4.662;2023-09-18T07:36:11;20.57;82.82
82788;DHT22;72529;51.786;4.662;2023-09-18T07:38:37;20.55;82.41
82788;DHT22;72529;51.786;4.662;2023-09-18T07:41:03;20.57;82.94
82788;DHT22;72529;51.786;4.662;2023-09-18T07:43:28;20.62;82.40
82788;DHT22;72529;51.786;4.662;2023-09-18T07:45:54;20.64;82.45
82788;DHT22;72529;51.786;4.662;2023-09-18T07:48:22;20.72;81.94
82788;DHT22;72529;51.786;4.662;2023-09-18T07:50:47;20.70;82.47
82788;DHT22;72529;51.786;4.662;2023-09-18T07:53:15;20.64;82.23
82788;DHT22;72529;51.786;4.662;2023-09-18T07:55:40;20.63;82.18
82788;DHT22;72529;51.786;4.662;2023-09-18T07:58:06;20.60;82.30
82788;DHT22;72529;51.786;4.662;2023-09-18T08:00:31;20.57;82.00
82788;DHT22;72529;51.786;4.662;2023-09-18T08:02:58;20.56;82.35
82788;DHT22;72529;51.786;4.662;2023-09-18T08:05:26;20.55;82.09
82788;DHT22;72529;51.786;4.662;2023-09-18T08:07:57;20.55;82.26
82788;DHT22;72529;51.786;4.662;2023-09-18T08:10:25;20.60;81.81
82788;DHT22;72529;51.786;4.662;2023-09-18T08:12:50;20.62;81.93
82788;DHT22;72529;51.786;4.662;2023-09-18T08:15:19;20.60;82.25
82788;DHT22;72529;51.786;4.662;2023-09-18T08:17:45;20.62;81.60
82788;DHT22;72529;51.786;4.662;2023-09-18T08:20:12;20.64;81.87
82788;DHT22;72529;51.786;4.662;2023-09-18T08:22:39;20.74;81.77
82788;DHT22;72529;51.786;4.662;2023-09-18T08:25:06;20.80;81.61
82788;DHT22;72529;51.786;4.662;2023-09-18T08:27:39;21.00;81.54
82788;DHT22;72529;51.786;4.662;2023-09-18T08:30:07;21.17;81.64
82788;DHT22;72529;51.786;4.662;2023-09-18T08:32:35;21.27;81.38
82788;DHT22;72529;51.786;4.662;2023-09-18T08:35:01;21.38;79.73
82788;DHT22;72529;51.786;4.662;2023-09-18T08:37:27;21.24;79.30
82788;DHT22;72529;51.786;4.662;2023-09-18T08:39:53;21.07;78.77
82788;DHT22;72529;51.786;4.662;2023-09-18T08:42:20;20.90;80.80
82788;DHT22;72529;51.786;4.662;2023-09-18T08:44:49;20.81;80.07
82788;DHT22;72529;51.786;4.662;2023-09-18T08:47:18;20.73;80.81
82788;DHT22;72529;51.786;4.662;2023-09-18T08:49:46;20.83;80.28
82788;DHT22;72529;51.786;4.662;2023-09-18T08:52:15;20.93;79.87
82788;DHT22;72529;51.786;4.662;2023-09-18T08:54:43;21.04;79.95
82788;DHT22;72529;51.786;4.662;2023-09-18T08:57:08;21.15;79.69
82788;DHT22;72529;51.786;4.662;2023-09-18T08:59:35;21.18;79.42
82788;DHT22;72529;51.786;4.662;2023-09-18T09:02:04;21.24;78.82
82788;DHT22;72529;51.786;4.662;2023-09-18T09:04:29;21.28;78.67
82788;DHT22;72529;51.786;4.662;2023-09-18T09:06:55;21.28;78.43
82788;DHT22;72529;51.786;4.662;2023-09-18T09:09:23;21.14;78.63
82788;DHT22;72529;51.786;4.662;2023-09-18T09:11:50;21.08;78.11
82788;DHT22;72529;51.786;4.662;2023-09-18T09:14:16;21.07;78.61
82788;DHT22;72529;51.786;4.662;2023-09-18T09:16:51;21.06;78.46
82788;DHT22;72529;51.786;4.662;2023-09-18T09:19:38;20.98;78.82
82788;DHT22;72529;51.786;4.662;2023-09-18T09:22:04;21.00;78.79
82788;DHT22;72529;51.786;4.662;2023-09-18T09:24:41;20.93;78.85
82788;DHT22;72529;51.786;4.662;2023-09-18T09:27:08;20.90;79.16
82788;DHT22;72529;51.786;4.662;2023-09-18T09:29:34;20.87;78.60
82788;DHT22;72529;51.786;4.662;2023-09-18T09:32:17;20.88;79.06
82788;DHT22;72529;51.786;4.662;2023-09-18T09:34:44;20.86;79.82
82788;DHT22;72529;51.786;4.662;2023-09-18T09:37:10;20.97;78.87
82788;DHT22;72529;51.786;4.662;2023-09-18T09:39:49;20.94;78.77
82788;DHT22;72529;51.786;4.662;2023-09-18T09:42:20;20.93;79.21
82788;DHT22;72529;51.786;4.662;2023-09-18T09:45:11;20.90;79.07
82788;DHT22;72529;51.786;4.662;2023-09-18T09:47:37;20.88;79.94
82788;DHT22;72529;51.786;4.662;2023-09-18T09:50:14;20.84;79.17
82788;DHT22;72529;51.786;4.662;2023-09-18T09:52:47;20.94;79.33
82788;DHT22;72529;51.786;4.662;2023-09-18T09:55:25;21.07;79.17
82788;DHT22;72529;51.786;4.662;2023-09-18T09:57:54;21.18;78.72
82788;DHT22;72529;51.786;4.662;2023-09-18T10:00:24;21.20;78.22
82788;DHT22;72529;51.786;4.662;2023-09-18T10:02:57;21.35;77.38
82788;DHT22;72529;51.786;4.662;2023-09-18T10:05:31;21.65;76.43
82788;DHT22;72529;51.786;4.662;2023-09-18T10:08:22;21.78;76.88
82788;DHT22;72529;51.786;4.662;2023-09-18T10:13:31;21.83;74.86
82788;DHT22;72529;51.786;4.662;2023-09-18T10:15:59;21.68;75.23
82788;DHT22;72529;51.786;4.662;2023-09-18T10:18:45;21.61;75.56
82788;DHT22;72529;51.786;4.662;2023-09-18T10:24:39;21.78;75.14
82788;DHT22;72529;51.786;4.662;2023-09-18T10:27:02;21.88;74.94
82788;DHT22;72529;51.786;4.662;2023-09-18T10:29:32;21.82;75.59
82788;DHT22;72529;51.786;4.662;2023-09-18T10:31:58;22.05;75.14
82788;DHT22;72529;51.786;4.662;2023-09-18T10:34:24;22.19;73.91
82788;DHT22;72529;51.786;4.662;2023-09-18T10:36:52;22.32;73.13
82788;DHT22;72529;51.786;4.662;2023-09-18T10:39:18;22.37;73.52
82788;DHT22;72529;51.786;4.662;2023-09-18T10:41:51;22.40;72.80
82788;DHT22;72529;51.786;4.662;2023-09-18T10:44:16;22.36;72.79
82788;DHT22;72529;51.786;4.662;2023-09-18T10:46:49;22.33;71.76
82788;DHT22;72529;51.786;4.662;2023-09-18T10:49:16;22.23;71.87
82788;DHT22;72529;51.786;4.662;2023-09-18T10:51:42;22.12;73.00
82788;DHT22;72529;51.786;4.662;2023-09-18T10:54:09;22.10;73.91
82788;DHT22;72529;51.786;4.662;2023-09-18T10:56:35;22.12;73.36
82788;DHT22;72529;51.786;4.662;2023-09-18T10:59:02;22.10;73.57
82788;DHT22;72529;51.786;4.662;2023-09-18T11:01:30;22.17;72.28
82788;DHT22;72529;51.786;4.662;2023-09-18T11:04:07;22.22;72.70
82788;DHT22;72529;51.786;4.662;2023-09-18T11:09:29;22.10;71.53
82788;DHT22;72529;51.786;4.662;2023-09-18T11:14:57;22.22;72.29
82788;DHT22;72529;51.786;4.662;2023-09-18T11:17:39;22.22;72.99
82788;DHT22;72529;51.786;4.662;2023-09-18T11:20:15;22.40;71.33
82788;DHT22;72529;51.786;4.662;2023-09-18T11:28:01;22.52;70.02
82788;DHT22;72529;51.786;4.662;2023-09-18T11:30:28;22.74;70.99
82788;DHT22;72529;51.786;4.662;2023-09-18T11:32:55;22.95;69.63
82788;DHT22;72529;51.786;4.662;2023-09-18T11:35:21;23.07;70.71
82788;DHT22;72529;51.786;4.662;2023-09-18T11:38:03;23.10;69.39
82788;DHT22;72529;51.786;4.662;2023-09-18T11:40:34;23.00;69.78
82788;DHT22;72529;51.786;4.662;2023-09-18T11:43:28;22.94;69.02
82788;DHT22;72529;51.786;4.662;2023-09-18T11:46:00;22.84;70.05
82788;DHT22;72529;51.786;4.662;2023-09-18T11:48:30;22.70;68.45
82788;DHT22;72529;51.786;4.662;2023-09-18T11:51:00;22.56;70.41
82788;DHT22;72529;51.786;4.662;2023-09-18T11:53:33;22.63;68.69
82788;DHT22;72529;51.786;4.662;2023-09-18T11:55:59;22.73;68.44
82788;DHT22;72529;51.786;4.662;2023-09-18T11:58:25;22.71;69.04
82788;DHT22;72529;51.786;4.662;2023-09-18T12:00:50;22.73;69.23
82788;DHT22;72529;51.786;4.662;2023-09-18T12:03:21;22.74;68.84
82788;DHT22;72529;51.786;4.662;2023-09-18T12:05:56;22.80;68.48
82788;DHT22;72529;51.786;4.662;2023-09-18T12:08:23;22.88;69.02
82788;DHT22;72529;51.786;4.662;2023-09-18T12:10:54;23.04;69.03
82788;DHT22;72529;51.786;4.662;2023-09-18T12:13:20;23.03;68.96
82788;DHT22;72529;51.786;4.662;2023-09-18T12:15:48;23.28;68.58
82788;DHT22;72529;51.786;4.662;2023-09-18T12:18:15;23.44;68.72
82788;DHT22;72529;51.786;4.662;2023-09-18T12:20:47;23.58;67.37
82788;DHT22;72529;51.786;4.662;2023-09-18T12:23:14;23.88;65.47
82788;DHT22;72529;51.786;4.662;2023-09-18T12:25:40;24.05;65.18
82788;DHT22;72529;51.786;4.662;2023-09-18T12:28:07;24.05;63.56
82788;DHT22;72529;51.786;4.662;2023-09-18T12:30:34;24.02;65.51
82788;DHT22;72529;51.786;4.662;2023-09-18T12:32:59;24.24;66.47
82788;DHT22;72529;51.786;4.662;2023-09-18T12:35:26;24.40;65.22
82788;DHT22;72529;51.786;4.662;2023-09-18T12:38:00;24.50;63.66
82788;DHT22;72529;51.786;4.662;2023-09-18T12:40:31;24.41;64.16
82788;DHT22;72529;51.786;4.662;2023-09-18T12:42:59;24.53;63.63
82788;DHT22;72529;51.786;4.662;2023-09-18T12:45:27;24.65;62.39
82788;DHT22;72529;51.786;4.662;2023-09-18T12:47:55;24.40;63.85
82788;DHT22;72529;51.786;4.662;2023-09-18T12:50:22;24.40;62.81
82788;DHT22;72529;51.786;4.662;2023-09-18T12:52:48;24.27;63.79
82788;DHT22;72529;51.786;4.662;2023-09-18T12:55:25;24.12;64.17
82788;DHT22;72529;51.786;4.662;2023-09-18T12:57:53;23.93;64.87
82788;DHT22;72529;51.786;4.662;2023-09-18T13:00:19;24.02;64.87
82788;DHT22;72529;51.786;4.662;2023-09-18T13:02:48;23.96;64.70
82788;DHT22;72529;51.786;4.662;2023-09-18T13:05:20;24.00;65.46
82788;DHT22;72529;51.786;4.662;2023-09-18T13:07:47;24.20;65.48
82788;DHT22;72529;51.786;4.662;2023-09-18T13:10:16;24.43;64.65
82788;DHT22;72529;51.786;4.662;2023-09-18T13:12:49;24.61;64.57
82788;DHT22;72529;51.786;4.662;2023-09-18T13:15:31;24.51;63.73
82788;DHT22;72529;51.786;4.662;2023-09-18T13:18:08;24.73;63.68
82788;DHT22;72529;51.786;4.662;2023-09-18T13:20:34;24.88;62.68
82788;DHT22;72529;51.786;4.662;2023-09-18T13:23:00;24.75;61.97
82788;DHT22;72529;51.786;4.662;2023-09-18T13:25:32;24.49;61.92
82788;DHT22;72529;51.786;4.662;2023-09-18T13:28:00;24.47;65.15
82788;DHT22;72529;51.786;4.662;2023-09-18T13:30:26;24.60;62.39
82788;DHT22;72529;51.786;4.662;2023-09-18T13:33:05;24.77;63.52
82788;DHT22;72529;51.786;4.662;2023-09-18T13:35:32;24.88;62.42
82788;DHT22;72529;51.786;4.662;2023-09-18T13:37:58;24.84;61.73
82788;DHT22;72529;51.786;4.662;2023-09-18T13:40:24;24.90;62.48
82788;DHT22;72529;51.786;4.662;2023-09-18T13:42:50;25.05;61.53
82788;DHT22;72529;51.786;4.662;2023-09-18T13:45:16;24.80;60.97
82788;DHT22;72529;51.786;4.662;2023-09-18T13:47:42;24.54;62.31
82788;DHT22;72529;51.786;4.662;2023-09-18T13:50:08;24.26;61.81
82788;DHT22;72529;51.786;4.662;2023-09-18T13:52:36;24.02;62.48
82788;DHT22;72529;51.786;4.662;2023-09-18T13:55:03;23.98;62.97
82788;DHT22;72529;51.786;4.662;2023-09-18T13:57:33;23.79;62.42
82788;DHT22;72529;51.786;4.662;2023-09-18T13:59:59;23.62;62.97
82788;DHT22;72529;51.786;4.662;2023-09-18T14:02:25;23.45;63.80
82788;DHT22;72529;51.786;4.662;2023-09-18T14:04:54;23.39;63.56
82788;DHT22;72529;51.786;4.662;2023-09-18T14:07:20;23.29;63.13
82788;DHT22;72529;51.786;4.662;2023-09-18T14:09:45;23.31;63.65
82788;DHT22;72529;51.786;4.662;2023-09-18T14:12:12;23.21;63.67
82788;DHT22;72529;51.786;4.662;2023-09-18T14:14:37;23.15;63.71
82788;DHT22;72529;51.786;4.662;2023-09-18T14:17:06;23.12;64.44
82788;DHT22;72529;51.786;4.662;2023-09-18T14:19:31;23.10;66.03
82788;DHT22;72529;51.786;4.662;2023-09-18T14:21:57;22.22;73.34
82788;DHT22;72529;51.786;4.662;2023-09-18T14:24:22;20.81;74.63
82788;DHT22;72529;51.786;4.662;2023-09-18T14:26:53;19.83;77.68
82788;DHT22;72529;51.786;4.662;2023-09-18T14:29:20;19.37;79.09
82788;DHT22;72529;51.786;4.662;2023-09-18T14:31:46;19.16;81.09
82788;DHT22;72529;51.786;4.662;2023-09-18T14:34:11;19.08;77.80
82788;DHT22;72529;51.786;4.662;2023-09-18T14:36:37;18.95;79.37
82788;DHT22;72529;51.786;4.662;2023-09-18T14:39:04;18.85;79.60
82788;DHT22;72529;51.786;4.662;2023-09-18T14:41:30;18.73;79.77
82788;DHT22;72529;51.786;4.662;2023-09-18T14:43:57;18.66;80.17
82788;DHT22;72529;51.786;4.662;2023-09-18T14:46:24;18.62;80.40
82788;DHT22;72529;51.786;4.662;2023-09-18T14:48:49;18.55;81.43
82788;DHT22;72529;51.786;4.662;2023-09-18T14:51:15;18.55;81.97
82788;DHT22;72529;51.786;4.662;2023-09-18T14:53:40;18.57;80.73
82788;DHT22;72529;51.786;4.662;2023-09-18T14:56:06;18.55;82.09
82788;DHT22;72529;51.786;4.662;2023-09-18T14:58:31;18.60;81.38
82788;DHT22;72529;51.786;4.662;2023-09-18T15:00:57;18.66;82.68
82788;DHT22;72529;51.786;4.662;2023-09-18T15:03:23;18.76;81.53
82788;DHT22;72529;51.786;4.662;2023-09-18T15:05:51;18.89;81.69
82788;DHT22;72529;51.786;4.662;2023-09-18T15:08:18;18.90;81.86
82788;DHT22;72529;51.786;4.662;2023-09-18T15:10:48;19.03;81.17
82788;DHT22;72529;51.786;4.662;2023-09-18T15:13:13;19.20;82.63
82788;DHT22;72529;51.786;4.662;2023-09-18T15:15:43;19.50;82.88
82788;DHT22;72529;51.786;4.662;2023-09-18T15:18:08;19.75;83.50
82788;DHT22;72529;51.786;4.662;2023-09-18T15:20:35;20.12;81.44
82788;DHT22;72529;51.786;4.662;2023-09-18T15:23:00;20.45;79.40
82788;DHT22;72529;51.786;4.662;2023-09-18T15:25:26;20.62;78.99
82788;DHT22;72529;51.786;4.662;2023-09-18T15:27:52;20.55;77.69
82788;DHT22;72529;51.786;4.662;2023-09-18T15:30:17;20.62;79.97
82788;DHT22;72529;51.786;4.662;2023-09-18T15:32:51;20.74;78.16
82788;DHT22;72529;51.786;4.662;2023-09-18T15:35:22;20.84;78.36
82788;DHT22;72529;51.786;4.662;2023-09-18T15:37:49;20.87;77.58
82788;DHT22;72529;51.786;4.662;2023-09-18T15:40:15;20.83;76.74
82788;DHT22;72529;51.786;4.662;2023-09-18T15:42:43;20.90;77.58
82788;DHT22;72529;51.786;4.662;2023-09-18T15:45:10;21.00;77.96
82788;DHT22;72529;51.786;4.662;2023-09-18T15:47:37;21.15;76.87
82788;DHT22;72529;51.786;4.662;2023-09-18T15:50:04;21.28;76.89